Time;durP1;ratioP1;P1;durP2;ratioP2;P2;SDS_P1;SDS_P2;PMS_P1;PMS_P2;Temp;Humidity;BMP_temperature;BMP_pressure;BME280_temperature;BME280_humidity;BME280_pressure;Samples;Min_cycle;Max_cycle;Signal;HPM_P1;HPM_P2
2022/05/07 00:01:28;;;;;;;9.17;8.27;;;;;;;7.28;100.00;101447.75;4947226;28;20207;-69
2022/05/07 00:03:54;;;;;;;9.33;8.23;;;;;;;7.34;100.00;101452.97;4937553;29;20839;-70
2022/05/07 00:06:22;;;;;;;12.40;8.60;;;;;;;7.45;100.00;101445.19;4949976;29;20701;-70
2022/05/07 00:08:49;;;;;;;8.90;8.00;;;;;;;7.35;100.00;101449.50;4943974;28;20237;-70
2022/05/07 00:11:20;;;;;;;12.47;8.20;;;;;;;7.37;100.00;101447.78;4945435;29;20207;-70
2022/05/07 00:13:46;;;;;;;9.00;8.10;;;;;;;7.28;100.00;101446.06;4936304;29;20594;-69
2022/05/07 00:18:57;;;;;;;9.20;8.20;;;;;;;7.19;100.00;101443.44;4950730;29;20321;-70
2022/05/07 00:21:24;;;;;;;8.53;7.63;;;;;;;7.15;100.00;101445.16;4942675;29;20204;-69
2022/05/07 00:23:51;;;;;;;10.57;8.27;;;;;;;7.11;100.00;101443.44;4949621;28;20204;-70
2022/05/07 00:26:17;;;;;;;10.10;8.57;;;;;;;7.05;100.00;101443.41;4938159;29;20212;-71
2022/05/07 00:28:44;;;;;;;10.50;7.97;;;;;;;7.05;100.00;101446.00;4939127;29;20219;-70
2022/05/07 00:31:10;;;;;;;9.20;8.30;;;;;;;6.99;100.00;101446.00;4941027;29;20209;-70
2022/05/07 00:33:38;;;;;;;11.23;8.83;;;;;;;6.97;100.00;101438.22;4939693;29;20215;-70
2022/05/07 00:36:05;;;;;;;11.10;8.13;;;;;;;6.93;100.00;101439.09;4945738;28;20284;-69
2022/05/07 00:38:33;;;;;;;9.27;8.13;;;;;;;7.00;100.00;101434.75;4951053;28;20222;-70
2022/05/07 00:41:00;;;;;;;13.83;9.20;;;;;;;6.93;100.00;101438.19;4936529;29;20713;-70
2022/05/07 00:43:34;;;;;;;14.50;9.30;;;;;;;6.89;100.00;101428.69;4938454;28;20230;-70
2022/05/07 00:46:00;;;;;;;9.80;8.23;;;;;;;6.86;100.00;101439.06;4947891;29;20294;-70
2022/05/07 00:48:27;;;;;;;13.97;8.60;;;;;;;6.78;100.00;101437.31;4935589;29;20219;-70
2022/05/07 00:53:39;;;;;;;11.73;8.67;;;;;;;6.75;100.00;101432.13;4943475;29;20214;-71
2022/05/07 00:56:06;;;;;;;11.50;8.83;;;;;;;6.83;100.00;101433.00;4943517;28;20294;-70
2022/05/07 00:58:32;;;;;;;11.57;8.77;;;;;;;6.73;100.00;101425.22;4944313;29;20234;-70
2022/05/07 01:00:59;;;;;;;14.03;8.80;;;;;;;6.68;100.00;101427.78;4943520;29;20219;-69
2022/05/07 01:03:25;;;;;;;9.77;8.77;;;;;;;6.68;100.00;101432.97;4933894;29;20234;-69
2022/05/07 01:05:52;;;;;;;9.50;8.50;;;;;;;6.63;100.00;101429.50;4947833;29;20211;-70
2022/05/07 01:08:20;;;;;;;11.13;8.87;;;;;;;6.58;100.00;101428.63;4932480;29;20341;-70
2022/05/07 01:10:49;;;;;;;11.27;9.43;;;;;;;6.57;100.00;101429.50;4934382;29;20683;-70
2022/05/07 01:13:18;;;;;;;11.20;9.67;;;;;;;6.56;100.00;101423.44;4929973;29;20222;-70
2022/05/07 01:15:46;;;;;;;9.47;8.53;;;;;;;6.52;100.00;101431.19;4938504;29;20746;-70
2022/05/07 01:18:16;;;;;;;10.97;9.73;;;;;;;6.49;100.00;101421.69;4934389;29;20294;-71
2022/05/07 01:20:43;;;;;;;10.17;9.17;;;;;;;6.53;100.00;101419.97;4941158;29;20776;-70
2022/05/07 01:23:11;;;;;;;10.57;9.47;;;;;;;6.57;100.00;101407.03;4947240;29;20326;-69
2022/05/07 01:25:38;;;;;;;10.97;9.80;;;;;;;6.58;100.00;101413.94;4944513;29;20222;-70
2022/05/07 01:28:06;;;;;;;10.40;9.30;;;;;;;6.52;100.00;101413.06;4939511;28;20320;-70
2022/05/07 01:30:35;;;;;;;10.63;9.60;;;;;;;6.52;100.00;101407.88;4950837;28;20290;-70
2022/05/07 01:33:02;;;;;;;13.17;9.97;;;;;;;6.50;100.00;101413.06;4939482;29;20214;-71
2022/05/07 01:35:29;;;;;;;11.17;9.90;;;;;;;6.48;100.00;101408.75;4932374;29;20262;-69
2022/05/07 01:37:56;;;;;;;11.77;9.77;;;;;;;6.54;100.00;101416.50;4946601;28;20247;-70
2022/05/07 01:40:26;;;;;;;13.37;10.03;;;;;;;6.51;100.00;101407.03;4941191;29;20266;-70
2022/05/07 01:42:55;;;;;;;12.73;10.10;;;;;;;6.47;100.00;101407.84;4944351;29;20206;-70
2022/05/07 01:45:22;;;;;;;11.70;10.20;;;;;;;6.39;100.00;101410.44;4932182;29;20231;-71
2022/05/07 01:50:39;;;;;;;10.93;9.73;;;;;;;6.40;100.00;101407.00;4943334;29;20203;-70
2022/05/07 01:53:08;;;;;;;12.73;10.37;;;;;;;6.43;100.00;101409.56;4943606;29;20207;-70
2022/05/07 01:55:36;;;;;;;16.30;9.77;;;;;;;6.36;100.00;101412.13;4939315;29;20678;-71
2022/05/07 01:58:03;;;;;;;12.10;10.03;;;;;;;6.30;100.00;101409.50;4938322;29;20234;-71
2022/05/07 02:00:31;;;;;;;11.73;10.23;;;;;;;6.24;100.00;101413.84;4941121;29;20218;-70
2022/05/07 02:02:57;;;;;;;14.03;10.30;;;;;;;6.25;100.00;101414.69;4944853;29;20210;-70
2022/05/07 02:05:27;;;;;;;12.33;9.47;;;;;;;6.32;100.00;101407.81;4941768;29;20752;-70
2022/05/07 02:07:53;;;;;;;11.27;10.17;;;;;;;6.19;100.00;101415.53;4944451;28;20211;-71
2022/05/07 02:10:21;;;;;;;10.77;9.67;;;;;;;6.26;100.00;101411.22;4941006;29;20282;-70
2022/05/07 02:12:50;;;;;;;10.37;9.37;;;;;;;6.21;100.00;101410.38;4932504;29;20290;-70
2022/05/07 02:15:20;;;;;;;13.37;9.57;;;;;;;6.13;100.00;101409.47;4933149;29;20233;-71
2022/05/07 02:17:51;;;;;;;11.70;9.70;;;;;;;6.12;100.00;101405.13;4936032;29;20327;-70
2022/05/07 02:20:17;;;;;;;13.67;9.90;;;;;;;6.11;100.00;101406.00;4946507;29;20219;-70
2022/05/07 02:22:44;;;;;;;11.03;8.63;;;;;;;6.11;100.00;101412.03;4947446;29;20206;-71
2022/05/07 02:25:11;;;;;;;10.80;9.07;;;;;;;6.05;100.00;101410.28;4946107;29;20206;-70
2022/05/07 02:27:37;;;;;;;10.87;9.47;;;;;;;6.07;100.00;101412.88;4946406;29;20217;-70
2022/05/07 02:30:07;;;;;;;10.70;9.53;;;;;;;6.04;100.00;101412.88;4940794;29;20246;-69
2022/05/07 02:32:34;;;;;;;9.80;8.80;;;;;;;5.96;100.00;101414.53;4948936;29;20199;-69
2022/05/07 02:35:01;;;;;;;11.47;9.47;;;;;;;5.95;100.00;101408.47;4940687;29;20199;-70
2022/05/07 02:37:35;;;;;;;10.57;9.10;;;;;;;5.95;100.00;101407.63;4945913;29;20199;-69
2022/05/07 02:40:02;;;;;;;11.93;9.40;;;;;;;5.99;100.00;101410.25;4938160;28;20243;-69
2022/05/07 02:42:33;;;;;;;11.97;8.93;;;;;;;5.91;100.00;101414.50;4946075;29;20645;-69
2022/05/07 02:45:10;;;;;;;10.30;8.93;;;;;;;5.94;100.00;101422.25;4944972;29;20300;-69
2022/05/07 02:47:38;;;;;;;14.03;9.80;;;;;;;5.87;100.00;101413.63;4936501;28;20687;-70
2022/05/07 02:50:07;;;;;;;9.17;8.27;;;;;;;5.85;100.00;101415.31;4937644;29;20207;-69
2022/05/07 02:52:33;;;;;;;10.97;8.73;;;;;;;5.83;100.00;101416.16;4940482;28;20199;-69
2022/05/07 02:55:03;;;;;;;11.53;8.63;;;;;;;5.85;100.00;101417.03;4936109;29;20227;-70
2022/05/07 02:57:30;;;;;;;9.27;8.27;;;;;;;5.90;100.00;101420.50;4937387;29;20262;-69
2022/05/07 02:59:57;;;;;;;10.40;8.80;;;;;;;5.86;100.00;101422.22;4946029;28;20779;-70
2022/05/07 03:02:25;;;;;;;10.87;8.90;;;;;;;5.88;100.00;101417.06;4938527;29;20221;-69
2022/05/07 03:04:54;;;;;;;9.90;8.90;;;;;;;5.88;100.00;101422.25;4930042;29;20210;-70
2022/05/07 03:07:20;;;;;;;9.70;8.70;;;;;;;5.77;100.00;101422.19;4942395;29;20398;-70
2022/05/07 03:09:49;;;;;;;10.47;9.13;;;;;;;5.70;100.00;101425.59;4930642;29;20227;-69
2022/05/07 03:12:16;;;;;;;10.47;9.23;;;;;;;5.74;100.00;101418.69;4935000;29;20720;-69
2022/05/07 03:14:45;;;;;;;10.40;9.33;;;;;;;5.62;100.00;101428.09;4939109;29;20235;-69
2022/05/07 03:17:12;;;;;;;9.87;8.50;;;;;;;5.69;100.00;101429.00;4944444;28;20218;-69
2022/05/07 03:19:39;;;;;;;10.67;9.33;;;;;;;5.65;100.00;101422.94;4931312;29;20231;-69
2022/05/07 03:22:06;;;;;;;10.03;8.63;;;;;;;5.72;100.00;101421.28;4933407;29;20230;-71
2022/05/07 03:24:37;;;;;;;11.40;9.27;;;;;;;5.73;100.00;101429.91;4946142;29;20215;-69
2022/05/07 03:27:05;;;;;;;10.10;9.10;;;;;;;5.75;100.00;101423.88;4938368;29;20556;-69
2022/05/07 03:29:33;;;;;;;11.67;8.90;;;;;;;5.71;100.00;101423.84;4940691;29;20264;-71
2022/05/07 03:32:09;;;;;;;11.37;9.50;;;;;;;5.71;100.00;101426.44;4945468;29;20294;-69
2022/05/07 03:34:37;;;;;;;9.80;8.80;;;;;;;5.90;100.00;101415.34;4932335;29;20207;-71
2022/05/07 03:37:06;;;;;;;10.23;9.10;;;;;;;5.92;100.00;101421.38;4934302;29;20577;-69
2022/05/07 03:39:35;;;;;;;10.93;9.50;;;;;;;5.90;100.00;101423.09;4936987;29;20323;-69
2022/05/07 03:42:02;;;;;;;10.93;9.83;;;;;;;6.00;100.00;101421.47;4937737;29;20598;-70
2022/05/07 03:44:28;;;;;;;10.67;9.57;;;;;;;6.09;100.00;101421.53;4946286;28;20206;-69
2022/05/07 03:46:56;;;;;;;11.10;9.20;;;;;;;6.16;100.00;101423.28;4937601;29;20286;-69
2022/05/07 03:49:23;;;;;;;10.33;9.30;;;;;;;6.18;100.00;101418.13;4939272;29;20609;-69
2022/05/07 03:54:45;;;;;;;12.70;11.40;;;;;;;6.21;100.00;101425.91;4901535;29;20226;-69
2022/05/07 03:57:13;;;;;;;15.97;11.00;;;;;;;6.35;100.00;101423.34;4948827;29;20262;-70
2022/05/07 03:59:41;;;;;;;11.50;9.53;;;;;;;6.49;100.00;101420.81;4937638;29;20228;-70
2022/05/07 04:02:08;;;;;;;12.87;10.17;;;;;;;6.51;100.00;101416.50;4945644;29;20229;-69
2022/05/07 04:04:47;;;;;;;12.47;9.90;;;;;;;6.52;100.00;101421.69;4941186;29;20198;-69
2022/05/07 04:07:15;;;;;;;11.90;9.57;;;;;;;6.61;100.00;101424.34;4940872;29;20318;-69
2022/05/07 04:09:51;;;;;;;11.00;9.50;;;;;;;6.77;100.00;101419.16;4944636;29;20276;-70
2022/05/07 04:12:22;;;;;;;10.30;9.23;;;;;;;6.88;100.00;101433.03;4944043;29;21005;-69
2022/05/07 04:14:48;;;;;;;9.67;8.67;;;;;;;6.94;100.00;101424.38;4949979;29;20209;-70
2022/05/07 04:17:15;;;;;;;9.27;8.43;;;;;;;7.05;100.00;101424.41;4949142;29;20697;-70
2022/05/07 04:19:42;;;;;;;11.27;8.97;;;;;;;7.14;100.00;101427.00;4945975;28;20222;-69
2022/05/07 04:22:08;;;;;;;9.53;8.53;;;;;;;7.26;100.00;101428.75;4940286;29;20254;-69
2022/05/07 04:24:44;;;;;;;10.60;9.23;;;;;;;7.41;100.00;101431.34;4939678;29;20217;-69
2022/05/07 04:27:12;;;;;;;11.03;8.63;;;;;;;7.61;100.00;101423.53;4939850;29;20211;-70
2022/05/07 04:29:40;;;;;;;9.77;8.77;;;;;;;7.57;100.00;101427.00;4946055;29;20226;-69
2022/05/07 04:32:13;;;;;;;11.07;9.73;;;;;;;7.67;100.00;101433.94;4942957;29;20191;-70
2022/05/07 04:34:40;;;;;;;11.20;9.00;;;;;;;7.71;100.00;101438.25;4944499;29;20209;-69
2022/05/07 04:37:07;;;;;;;8.80;7.93;;;;;;;7.84;100.00;101430.44;4943786;29;20210;-70
2022/05/07 04:39:34;;;;;;;9.20;8.13;;;;;;;7.99;100.00;101429.53;4942678;28;20229;-69
2022/05/07 04:42:06;;;;;;;10.73;9.03;;;;;;;7.96;100.00;101433.84;4936654;29;20309;-70
2022/05/07 04:44:41;;;;;;;10.50;7.90;;;;;;;8.07;100.00;101427.78;4941206;28;20207;-70
2022/05/07 04:47:15;;;;;;;9.23;8.17;;;;;;;8.24;100.00;101431.19;4947831;29;20194;-71
2022/05/07 04:49:43;;;;;;;10.90;8.00;;;;;;;8.33;100.00;101432.88;4935698;29;20534;-71
2022/05/07 04:52:10;;;;;;;10.13;8.97;;;;;;;8.40;100.00;101436.31;4947986;29;20195;-69
2022/05/07 04:54:38;;;;;;;9.90;8.90;;;;;;;8.50;100.00;101433.72;4945722;29;20590;-70
2022/05/07 04:57:07;;;;;;;11.60;8.10;;;;;;;8.43;100.00;101436.34;4944325;29;20627;-70
2022/05/07 04:59:42;;;;;;;8.97;7.93;;;;;;;8.57;100.00;101436.28;4945243;29;20245;-70
2022/05/07 05:02:14;;;;;;;10.03;7.80;;;;;;;8.71;100.00;101442.28;4932765;29;20235;-71
2022/05/07 05:04:46;;;;;;;8.40;7.60;;;;;;;8.87;100.00;101445.66;4939189;29;20204;-70
2022/05/07 05:07:16;;;;;;;8.60;7.70;;;;;;;9.10;100.00;101443.75;4936729;29;20212;-70
2022/05/07 05:09:45;;;;;;;12.07;7.93;;;;;;;9.27;100.00;101446.25;4944405;28;20726;-70
2022/05/07 05:12:17;;;;;;;9.63;7.77;;;;;;;9.44;100.00;101446.09;4944442;29;20239;-72
2022/05/07 05:15:03;;;;;;;7.87;7.13;;;;;;;9.63;100.00;101454.63;4938852;29;20215;-70
2022/05/07 05:17:42;;;;;;;8.23;7.40;;;;;;;9.83;100.00;101450.97;4943328;29;20209;-69
2022/05/07 05:20:09;;;;;;;9.27;7.67;;;;;;;9.91;100.00;101453.50;4937571;28;20314;-72
2022/05/07 05:22:46;;;;;;;8.40;7.60;;;;;;;10.11;100.00;101458.50;4932764;29;20274;-70
2022/05/07 05:25:12;;;;;;;10.73;8.13;;;;;;;10.28;100.00;101455.72;4934763;29;20732;-69
2022/05/07 05:27:39;;;;;;;10.27;6.93;;;;;;;10.45;100.00;101459.00;4947296;29;20210;-70
2022/05/07 05:30:11;;;;;;;8.17;7.10;;;;;;;10.65;100.00;101458.75;4941880;29;20225;-70
2022/05/07 05:32:37;;;;;;;8.07;7.27;;;;;;;10.80;100.00;101461.16;4942856;29;20309;-70
2022/05/07 05:35:06;;;;;;;8.57;7.27;;;;;;;11.01;100.00;101459.13;4937761;29;20208;-71
2022/05/07 05:37:38;;;;;;;10.07;7.20;;;;;;;11.25;100.00;101454.41;4934278;29;20222;-69
2022/05/07 05:40:06;;;;;;;10.73;6.97;;;;;;;11.48;100.00;101457.50;4939317;29;20289;-70
2022/05/07 05:42:38;;;;;;;13.83;6.47;;;;;;;11.75;100.00;101448.34;4940954;29;20270;-70
2022/05/07 05:45:08;;;;;;;9.87;6.30;;;;;;;11.97;100.00;101449.75;4938559;29;20750;-69
2022/05/07 05:47:37;;;;;;;9.87;6.43;;;;;;;12.11;100.00;101450.34;4936607;29;20207;-72
2022/05/07 05:50:04;;;;;;;7.83;5.50;;;;;;;12.24;100.00;101449.22;4944146;29;20297;-70
2022/05/07 05:52:38;;;;;;;7.47;6.00;;;;;;;12.50;99.77;101453.03;4934362;29;20204;-70
2022/05/07 05:55:06;;;;;;;5.80;5.13;;;;;;;12.70;97.58;101463.09;4935909;29;20692;-70
2022/05/07 05:57:33;;;;;;;6.80;5.77;;;;;;;12.87;96.71;101468.81;4932941;29;20202;-70
2022/05/07 06:00:00;;;;;;;8.47;5.50;;;;;;;13.06;95.50;101471.00;4939807;29;20643;-70
2022/05/07 06:02:29;;;;;;;6.23;5.20;;;;;;;13.23;94.14;101475.84;4941803;29;20653;-70
2022/05/07 06:05:04;;;;;;;7.03;5.70;;;;;;;13.35;92.93;101478.22;4942881;29;20305;-71
2022/05/07 06:07:31;;;;;;;5.60;5.00;;;;;;;13.53;92.13;101476.91;4946864;29;20203;-70
2022/05/07 06:10:00;;;;;;;6.40;5.50;;;;;;;13.79;90.52;101488.47;4937783;29;20230;-70
2022/05/07 06:12:30;;;;;;;6.87;4.97;;;;;;;13.99;89.87;101485.34;4934678;29;20209;-71
2022/05/07 06:14:57;;;;;;;8.13;5.30;;;;;;;14.19;87.95;101492.66;4937070;28;20725;-71
2022/05/07 06:17:27;;;;;;;7.03;4.97;;;;;;;14.46;88.46;101493.66;4955396;28;20256;-70
2022/05/07 06:19:54;;;;;;;6.77;4.30;;;;;;;14.62;85.59;101493.25;4938989;29;20224;-70
2022/05/07 06:22:22;;;;;;;6.00;3.70;;;;;;;14.72;83.58;101492.06;4939457;28;20223;-70
2022/05/07 06:27:51;;;;;;;5.20;3.90;;;;;;;14.97;82.38;101489.56;4936848;29;20367;-70
2022/05/07 06:30:24;;;;;;;4.57;3.70;;;;;;;15.00;81.89;101489.44;4934276;29;20563;-70
2022/05/07 06:32:54;;;;;;;6.93;4.10;;;;;;;15.17;81.90;101491.56;4942936;29;20296;-70
2022/05/07 06:35:25;;;;;;;4.20;3.33;;;;;;;15.41;78.14;101502.19;4939290;29;20214;-71
2022/05/07 06:38:01;;;;;;;4.83;3.63;;;;;;;15.67;76.70;101502.22;4943959;28;20259;-70
2022/05/07 06:40:28;;;;;;;5.63;3.57;;;;;;;15.86;77.08;101497.19;4935686;29;20199;-70
2022/05/07 06:42:56;;;;;;;5.50;3.40;;;;;;;16.02;76.08;101497.53;4941190;29;20225;-71
2022/05/07 06:45:32;;;;;;;8.20;3.20;;;;;;;16.15;71.64;101512.91;4939329;28;20203;-73
2022/05/07 06:48:00;;;;;;;3.70;3.07;;;;;;;16.24;69.46;101517.81;4937881;29;20225;-72
2022/05/07 06:50:27;;;;;;;6.87;2.90;;;;;;;16.16;70.33;101511.97;4936748;29;20301;-70
2022/05/07 06:52:54;;;;;;;3.27;2.80;;;;;;;16.35;69.37;101515.66;4936153;29;20598;-71
2022/05/07 06:55:21;;;;;;;3.10;2.73;;;;;;;16.45;67.91;101518.81;4940065;29;20210;-72
2022/05/07 06:57:48;;;;;;;3.57;2.77;;;;;;;16.54;66.79;101515.00;4941741;28;20195;-70
2022/05/07 07:00:15;;;;;;;5.50;3.10;;;;;;;16.43;67.51;101520.66;4939684;28;20241;-71
2022/05/07 07:02:42;;;;;;;3.07;2.70;;;;;;;16.46;67.38;101524.03;4938869;29;20231;-72
2022/05/07 07:05:10;;;;;;;5.60;3.13;;;;;;;16.45;67.92;101530.19;4932908;28;20237;-71
2022/05/07 07:07:36;;;;;;;6.07;3.00;;;;;;;16.47;69.62;101522.25;4934801;29;20211;-70
2022/05/07 07:10:03;;;;;;;3.13;2.83;;;;;;;16.37;66.88;101534.03;4938949;29;20250;-72
2022/05/07 07:12:30;;;;;;;3.30;2.90;;;;;;;16.32;67.03;101534.19;4937289;28;20262;-71
2022/05/07 07:14:57;;;;;;;3.60;3.03;;;;;;;16.35;65.51;101538.50;4936757;28;20210;-70
2022/05/07 07:17:25;;;;;;;4.53;3.30;;;;;;;16.44;64.72;101535.50;4937951;28;20210;-71
2022/05/07 07:19:52;;;;;;;3.27;2.97;;;;;;;16.51;65.64;101534.38;4943021;28;20243;-70
2022/05/07 07:22:18;;;;;;;4.10;2.97;;;;;;;16.41;66.91;101528.59;4941248;28;20587;-71
2022/05/07 07:24:44;;;;;;;4.00;3.00;;;;;;;16.41;68.09;101528.59;4942715;28;20297;-70
2022/05/07 07:27:11;;;;;;;4.83;2.93;;;;;;;16.51;63.83;101528.25;4937137;28;20660;-70
2022/05/07 07:29:39;;;;;;;4.30;2.90;;;;;;;16.66;62.83;101533.81;4939645;29;20233;-69
2022/05/07 07:32:06;;;;;;;4.37;3.00;;;;;;;16.79;62.15;101525.47;4942360;29;20198;-70
2022/05/07 07:34:32;;;;;;;3.17;2.87;;;;;;;16.93;61.56;101527.59;4944747;29;20571;-70
2022/05/07 07:36:59;;;;;;;5.10;2.57;;;;;;;17.03;62.20;101521.91;4942959;28;20204;-70
2022/05/07 07:39:25;;;;;;;4.10;2.70;;;;;;;17.05;60.52;101526.28;4941206;29;20225;-70
2022/05/07 07:41:52;;;;;;;3.17;2.53;;;;;;;17.04;59.38;101528.03;4944899;29;20210;-70
2022/05/07 07:44:19;;;;;;;3.07;2.37;;;;;;;17.21;58.74;101525.59;4945814;28;20203;-71
2022/05/07 07:49:30;;;;;;;6.07;2.67;;;;;;;17.31;56.20;101531.38;4938386;29;20219;-73
2022/05/07 07:51:57;;;;;;;3.23;2.23;;;;;;;17.37;55.57;101532.91;4941771;29;20294;-70
2022/05/07 07:54:23;;;;;;;4.93;2.70;;;;;;;17.45;56.49;101529.94;4942385;29;20578;-70
2022/05/07 07:56:50;;;;;;;5.60;2.80;;;;;;;17.59;56.60;101532.91;4941148;29;20576;-71
2022/05/07 07:59:16;;;;;;;3.43;2.37;;;;;;;17.68;57.78;101523.75;4940317;28;20230;-70
2022/05/07 08:01:43;;;;;;;4.57;2.20;;;;;;;17.69;57.48;101523.66;4940270;29;20842;-70
2022/05/07 08:04:10;;;;;;;4.83;2.07;;;;;;;17.74;55.19;101526.13;4940958;29;20230;-70
2022/05/07 08:06:37;;;;;;;5.20;2.40;;;;;;;17.82;56.98;101528.41;4942473;29;20213;-70
2022/05/07 08:11:55;;;;;;;4.43;2.20;;;;;;;18.04;54.98;101531.91;4943064;29;20257;-70
2022/05/07 08:14:22;;;;;;;2.97;2.20;;;;;;;18.18;54.58;101533.94;4944042;28;20222;-70
2022/05/07 08:16:48;;;;;;;3.03;2.10;;;;;;;18.22;52.42;101538.16;4940788;28;20798;-70
2022/05/07 08:19:16;;;;;;;2.43;2.10;;;;;;;18.13;51.37;101538.56;4942242;28;20223;-71
2022/05/07 08:21:43;;;;;;;3.80;2.23;;;;;;;18.21;52.02;101536.47;4939705;28;20219;-72
2022/05/07 08:24:09;;;;;;;3.27;2.00;;;;;;;18.39;50.71;101534.78;4939263;28;20242;-70
2022/05/07 08:26:36;;;;;;;3.20;2.33;;;;;;;18.35;51.38;101531.41;4943423;28;20546;-71
2022/05/07 08:29:02;;;;;;;5.40;2.27;;;;;;;18.38;50.29;101541.00;4939347;28;20218;-71
2022/05/07 08:31:29;;;;;;;6.60;2.70;;;;;;;18.47;51.54;101531.81;4939555;28;20562;-70
2022/05/07 08:33:55;;;;;;;5.70;2.47;;;;;;;18.44;50.08;101535.44;4940235;28;20773;-70
2022/05/07 08:36:23;;;;;;;5.27;2.50;;;;;;;18.48;49.79;101536.16;4942019;28;20250;-71
2022/05/07 08:38:49;;;;;;;3.23;2.50;;;;;;;18.56;52.14;101531.38;4935153;28;20314;-71
2022/05/07 08:41:16;;;;;;;3.83;2.17;;;;;;;18.62;50.63;101531.09;4942032;29;20195;-71
2022/05/07 08:43:43;;;;;;;2.30;1.80;;;;;;;18.73;48.16;101530.59;4945278;28;20963;-70
2022/05/07 08:46:12;;;;;;;2.60;2.13;;;;;;;18.73;49.33;101530.59;4940379;28;20211;-71
2022/05/07 08:48:40;;;;;;;3.57;2.23;;;;;;;18.82;48.64;101521.44;4941711;29;20226;-70
2022/05/07 08:51:10;;;;;;;4.33;1.90;;;;;;;18.87;49.84;101522.06;4940604;29;20210;-71
2022/05/07 08:53:39;;;;;;;3.70;1.53;;;;;;;18.95;46.78;101524.38;4941683;28;20213;-70
2022/05/07 08:56:07;;;;;;;3.33;1.90;;;;;;;18.99;47.85;101524.13;4941248;29;20223;-70
2022/05/07 08:58:33;;;;;;;2.80;1.90;;;;;;;19.10;47.64;101523.63;4943096;28;20218;-71
2022/05/07 09:01:00;;;;;;;2.70;2.03;;;;;;;19.00;46.71;101525.88;4948067;29;20218;-70
2022/05/07 09:03:38;;;;;;;3.70;2.00;;;;;;;19.11;46.11;101525.34;4940268;29;20215;-72
2022/05/07 09:06:15;;;;;;;2.70;1.87;;;;;;;19.04;45.53;101526.56;4940730;28;20219;-71
2022/05/07 09:08:45;;;;;;;2.63;2.03;;;;;;;19.16;48.05;101518.06;4937861;28;20218;-70
2022/05/07 09:11:11;;;;;;;4.27;1.90;;;;;;;19.29;45.63;101526.25;4939042;29;20211;-70
2022/05/07 09:13:38;;;;;;;3.80;2.10;;;;;;;19.42;43.55;101527.38;4952811;28;20790;-70
2022/05/07 09:16:08;;;;;;;2.90;1.87;;;;;;;19.48;43.73;101521.78;4938840;28;20439;-71
2022/05/07 09:18:35;;;;;;;2.17;1.97;;;;;;;19.34;45.40;101518.94;4937261;29;20219;-71
2022/05/07 09:21:19;;;;;;;3.63;1.80;;;;;;;19.43;45.59;101510.56;4937051;29;20615;-70
2022/05/07 09:24:00;;;;;;;2.70;1.97;;;;;;;19.61;45.78;101511.47;4940532;29;20221;-70
2022/05/07 09:26:28;;;;;;;4.33;2.30;;;;;;;19.74;43.92;101514.38;4940730;29;20819;-71
2022/05/07 09:28:55;;;;;;;2.77;2.00;;;;;;;19.92;42.30;101522.31;4940719;29;20235;-70
2022/05/07 09:31:23;;;;;;;3.73;2.43;;;;;;;19.85;41.74;101512.00;4939815;28;20195;-71
2022/05/07 09:33:50;;;;;;;3.13;2.30;;;;;;;19.91;43.50;101510.88;4943167;29;20203;-70
2022/05/07 09:36:15;;;;;;;3.47;2.17;;;;;;;20.08;44.12;101501.19;4936396;28;20211;-72
2022/05/07 09:38:44;;;;;;;3.63;1.90;;;;;;;20.21;42.61;101511.06;4945839;29;20234;-71
2022/05/07 09:41:20;;;;;;;4.20;2.33;;;;;;;20.22;43.67;101502.16;4935344;29;20218;-71
2022/05/07 09:43:50;;;;;;;3.43;2.10;;;;;;;20.35;43.10;101499.75;4943157;28;20234;-70
2022/05/07 09:46:18;;;;;;;3.30;2.30;;;;;;;20.33;42.20;101495.44;4944725;29;20265;-70
2022/05/07 09:48:45;;;;;;;4.07;2.47;;;;;;;20.53;44.10;101503.19;4940142;28;20234;-71
2022/05/07 09:51:12;;;;;;;4.13;2.30;;;;;;;20.57;43.77;101493.28;4947945;28;20225;-70
2022/05/07 09:59:10;;;;;;;2.23;1.90;;;;;;;20.89;42.16;101493.31;4940145;29;20366;-71
2022/05/07 10:01:51;;;;;;;2.57;1.97;;;;;;;21.01;43.24;101476.72;4942573;28;20562;-70
2022/05/07 10:04:44;;;;;;;2.93;2.13;;;;;;;20.98;41.01;101477.78;4941949;29;20202;-70
2022/05/07 10:07:22;;;;;;;2.10;1.90;;;;;;;21.00;43.56;101461.75;4939099;29;20210;-70
2022/05/07 10:10:04;;;;;;;2.20;2.00;;;;;;;21.04;43.01;101468.63;4946874;28;20247;-71
2022/05/07 10:12:33;;;;;;;3.60;2.00;;;;;;;21.11;42.51;101466.47;4940663;29;20202;-70
2022/05/07 10:15:07;;;;;;;4.30;2.53;;;;;;;21.29;43.47;101469.84;4931728;29;20594;-70
2022/05/07 10:17:35;;;;;;;3.13;1.80;;;;;;;21.37;42.23;101473.78;4937561;29;20213;-71
2022/05/07 10:20:13;;;;;;;2.07;1.70;;;;;;;21.52;42.89;101465.88;4931798;29;20718;-70
2022/05/07 10:22:44;;;;;;;4.00;2.00;;;;;;;21.36;42.97;101468.56;4941582;29;20325;-71
2022/05/07 10:25:19;;;;;;;2.00;1.80;;;;;;;21.50;43.49;101467.78;4939315;28;20215;-71
2022/05/07 10:28:05;;;;;;;2.80;2.07;;;;;;;21.70;41.30;101467.44;4932143;29;20198;-72
2022/05/07 10:30:58;;;;;;;4.37;1.90;;;;;;;21.79;41.96;101467.84;4931615;28;20210;-71
2022/05/07 10:33:27;;;;;;;5.80;1.80;;;;;;;21.96;39.93;101466.81;4934149;28;20209;-71
2022/05/07 10:36:17;;;;;;;2.93;1.83;;;;;;;21.74;38.22;101460.16;4935191;28;20242;-71
2022/05/07 10:38:46;;;;;;;3.30;2.35;;;;;;;21.61;37.65;101454.72;4937083;29;20517;-70
2022/05/07 10:41:24;;;;;;;3.88;1.70;;;;;;;21.48;40.34;101451.09;4933116;29;20210;-72
2022/05/07 10:44:06;;;;;;;3.63;1.70;;;;;;;21.41;40.47;101449.72;4938467;28;20226;-71
2022/05/07 10:46:42;;;;;;;2.87;1.87;;;;;;;21.21;38.98;101449.06;4941322;29;20202;-71
2022/05/07 10:49:09;;;;;;;1.97;1.50;;;;;;;21.53;39.25;101451.69;4938086;29;20801;-70
2022/05/07 10:51:37;;;;;;;2.53;1.90;;;;;;;21.74;36.93;101454.88;4934401;28;20460;-70
2022/05/07 10:54:16;;;;;;;1.70;1.60;;;;;;;21.67;38.55;101445.53;4943357;28;20902;-70
2022/05/07 10:56:47;;;;;;;1.85;1.75;;;;;;;21.60;39.26;101457.47;4943146;29;20578;-71
2022/05/07 10:59:15;;;;;;;2.75;1.80;;;;;;;21.66;37.03;101449.16;4937728;28;20227;-70
2022/05/07 11:01:42;;;;;;;3.22;1.80;;;;;;;21.88;37.33;101444.25;4938608;28;20683;-71
2022/05/07 11:04:12;;;;;;;2.65;1.70;;;;;;;21.72;36.21;101449.66;4937835;28;20749;-70
2022/05/07 11:06:46;;;;;;;4.03;1.50;;;;;;;21.75;36.42;101441.47;4935976;29;20641;-70
2022/05/07 11:09:14;;;;;;;2.10;1.90;;;;;;;21.83;37.75;101442.81;4944720;28;20210;-71
2022/05/07 11:11:45;;;;;;;2.00;1.80;;;;;;;21.74;40.41;101433.63;4935364;29;20667;-71
2022/05/07 11:14:23;;;;;;;3.22;1.80;;;;;;;21.66;39.35;101435.88;4934159;29;20542;-71
2022/05/07 11:16:50;;;;;;;3.10;1.63;;;;;;;21.53;37.75;101438.44;4939727;29;20198;-72
2022/05/07 11:19:24;;;;;;;2.80;1.92;;;;;;;21.49;36.57;101439.53;4937977;29;20223;-71
2022/05/07 11:21:52;;;;;;;2.88;1.73;;;;;;;21.43;38.19;101430.13;4937329;28;20305;-71
2022/05/07 11:24:20;;;;;;;1.63;1.50;;;;;;;21.30;42.16;101427.34;4938970;29;20547;-70
2022/05/07 11:26:50;;;;;;;2.38;1.95;;;;;;;21.25;38.89;101426.75;4943007;28;20632;-70
2022/05/07 11:29:17;;;;;;;2.33;1.80;;;;;;;21.27;40.74;101421.34;4938287;29;20222;-70
2022/05/07 11:31:55;;;;;;;2.70;1.58;;;;;;;21.24;40.93;101421.53;4939425;29;20199;-72
2022/05/07 11:34:29;;;;;;;4.15;1.60;;;;;;;21.09;40.36;101423.25;4940629;29;20202;-71
2022/05/07 11:36:55;;;;;;;2.13;1.92;;;;;;;20.88;39.61;101422.69;4941707;29;20203;-70
2022/05/07 11:39:22;;;;;;;2.67;1.60;;;;;;;20.84;40.01;101421.16;4936931;29;20266;-71
2022/05/07 11:41:55;;;;;;;3.47;1.63;;;;;;;20.86;41.82;101409.56;4938411;29;20230;-70
2022/05/07 11:47:22;;;;;;;2.53;1.80;;;;;;;20.79;40.83;101418.78;4938804;29;20297;-71
2022/05/07 11:49:58;;;;;;;4.80;1.75;;;;;;;20.88;39.07;101407.66;4939232;29;20230;-73
2022/05/07 11:52:28;;;;;;;4.07;1.60;;;;;;;21.01;38.67;101404.31;4937972;29;20210;-72
2022/05/07 11:54:54;;;;;;;4.23;1.77;;;;;;;21.20;39.10;101407.59;4943115;28;20654;-71
2022/05/07 11:57:28;;;;;;;3.50;1.70;;;;;;;21.50;38.26;101404.13;4931471;29;20206;-70
2022/05/07 11:59:55;;;;;;;2.80;1.80;;;;;;;21.89;39.64;101406.13;4937959;28;20242;-71